Time;durP1;ratioP1;P1;durP2;ratioP2;P2;SDS_P1;SDS_P2;PMS_P1;PMS_P2;Temp;Humidity;BMP_temperature;BMP_pressure;BME280_temperature;BME280_humidity;BME280_pressure;Samples;Min_cycle;Max_cycle;Signal;HPM_P1;HPM_P2
2023/04/08 00:01:42;;;;;;;17.70;8.98;;;;;;;7.93;100.00;100264.05;1709290;83;21239;-86
2023/04/08 00:04:49;;;;;;;16.90;8.95;;;;;;;7.77;100.00;100265.31;1708742;83;21243;-86
2023/04/08 00:12:49;;;;;;;12.78;8.93;;;;;;;7.53;100.00;100254.59;1704270;83;21194;-86
2023/04/08 00:19:27;;;;;;;17.87;10.75;;;;;;;7.38;100.00;100254.78;1698757;83;21243;-86
2023/04/08 00:22:35;;;;;;;21.70;13.25;;;;;;;7.26;100.00;100255.55;1675989;84;22598;-86
2023/04/08 00:25:40;;;;;;;19.42;13.60;;;;;;;7.20;100.00;100258.02;1673611;83;21958;-87
2023/04/08 00:28:46;;;;;;;21.50;15.20;;;;;;;7.21;100.00;100255.16;1681560;83;21189;-87
2023/04/08 00:31:53;;;;;;;18.92;14.58;;;;;;;7.20;100.00;100256.66;1680521;84;21244;-87
2023/04/08 00:34:59;;;;;;;26.27;16.35;;;;;;;7.24;100.00;100256.70;1667276;83;21288;-86
2023/04/08 00:40:31;;;;;;;31.65;19.32;;;;;;;7.22;100.00;100246.49;1679485;83;21271;-86
2023/04/08 00:48:37;;;;;;;29.63;20.27;;;;;;;7.41;100.00;100243.09;1704931;84;21235;-86
2023/04/08 00:54:11;;;;;;;36.80;23.32;;;;;;;7.36;100.00;100241.34;1705329;83;21258;-86
2023/04/08 00:57:16;;;;;;;39.15;25.15;;;;;;;7.35;100.00;100243.72;1709721;83;21833;-87
2023/04/08 01:00:23;;;;;;;38.95;26.37;;;;;;;7.36;100.00;100245.42;1678981;84;21240;-86
2023/04/08 01:03:56;;;;;;;55.08;27.50;;;;;;;7.26;100.00;100245.17;1706358;83;21271;-86
2023/04/08 01:07:50;;;;;;;75.25;27.85;;;;;;;7.25;100.00;100244.32;1703982;83;21295;-86
2023/04/08 01:13:25;;;;;;;109.03;29.80;;;;;;;7.38;100.00;100246.11;1707159;84;21227;-87
2023/04/08 01:18:59;;;;;;;75.67;31.75;;;;;;;7.37;100.00;100248.48;1706655;83;21750;-86
2023/04/08 01:24:37;;;;;;;62.90;34.78;;;;;;;7.41;100.00;100255.84;1707941;84;21537;-86
2023/04/08 01:27:43;;;;;;;69.53;34.30;;;;;;;7.40;100.00;100264.52;1705086;83;21228;-86
2023/04/08 01:30:49;;;;;;;69.32;36.93;;;;;;;7.41;100.00;100261.28;1702594;83;21228;-86
2023/04/08 01:33:54;;;;;;;64.53;34.85;;;;;;;7.52;100.00;100262.38;1698533;83;21780;-86
2023/04/08 01:37:01;;;;;;;73.65;37.30;;;;;;;7.52;100.00;100263.74;1702728;83;21216;-86
2023/04/08 01:40:06;;;;;;;75.08;38.60;;;;;;;7.65;100.00;100264.70;1707796;83;21283;-86
2023/04/08 01:43:14;;;;;;;87.33;40.15;;;;;;;7.67;100.00;100266.27;1709799;83;21240;-86
2023/04/08 01:46:20;;;;;;;70.60;38.28;;;;;;;7.64;100.00;100267.09;1703320;83;21248;-86
2023/04/08 01:49:27;;;;;;;76.75;39.42;;;;;;;7.73;100.00;100267.50;1711995;83;21239;-86
2023/04/08 01:52:32;;;;;;;81.95;36.83;;;;;;;7.88;100.00;100271.34;1707235;83;21197;-86
2023/04/08 01:55:38;;;;;;;77.32;38.45;;;;;;;7.84;100.00;100268.59;1703435;83;21274;-86
2023/04/08 01:58:53;;;;;;;70.78;36.98;;;;;;;7.75;100.00;100277.70;1686862;83;21224;-86
2023/04/08 02:01:43;;;;;;;72.17;38.80;;;;;;;7.89;100.00;100275.77;1695040;84;21755;-86
2023/04/08 02:04:49;;;;;;;74.95;36.93;;;;;;;7.97;100.00;100276.84;1700560;83;21243;-86
2023/04/08 02:07:57;;;;;;;68.22;36.30;;;;;;;7.90;100.00;100276.14;1664177;84;21765;-86
2023/04/08 02:11:04;;;;;;;68.33;36.68;;;;;;;7.98;100.00;100268.51;1700001;83;21223;-87
2023/04/08 02:14:11;;;;;;;68.57;36.80;;;;;;;7.86;100.00;100266.58;1688499;82;21280;-86
2023/04/08 02:20:03;;;;;;;61.18;34.23;;;;;;;7.99;100.00;100269.36;1669418;85;22030;-87
2023/04/08 02:23:19;;;;;;;61.23;33.20;;;;;;;7.94;100.00;100259.80;1689189;83;21267;-87
2023/04/08 02:26:26;;;;;;;62.35;33.53;;;;;;;8.11;100.00;100269.45;1666312;84;21327;-86
2023/04/08 02:29:31;;;;;;;56.70;31.87;;;;;;;8.08;100.00;100275.20;1679712;83;21251;-86
2023/04/08 02:32:37;;;;;;;52.35;30.82;;;;;;;8.18;100.00;100267.77;1680761;84;21236;-86
2023/04/08 02:35:45;;;;;;;53.60;30.10;;;;;;;8.23;100.00;100270.00;1677358;83;21597;-86
2023/04/08 02:38:56;;;;;;;49.60;30.45;;;;;;;8.21;100.00;100271.54;1688309;83;21228;-86
2023/04/08 02:41:55;;;;;;;50.92;29.63;;;;;;;8.20;100.00;100267.97;1689386;83;21283;-86
2023/04/08 02:47:28;;;;;;;49.85;28.73;;;;;;;8.17;100.00;100255.16;1682277;83;21265;-86
2023/04/08 02:53:03;;;;;;;54.25;29.42;;;;;;;8.04;100.00;100252.88;1682362;83;21223;-87
2023/04/08 02:58:35;;;;;;;60.20;28.20;;;;;;;8.18;100.00;100258.23;1680685;84;21279;-87
2023/04/08 03:01:40;;;;;;;49.42;27.67;;;;;;;8.09;100.00;100260.08;1667688;83;21194;-86
2023/04/08 03:07:13;;;;;;;52.45;29.77;;;;;;;8.10;100.00;100271.83;1686956;83;21790;-86
2023/04/08 03:10:19;;;;;;;54.03;29.57;;;;;;;8.16;100.00;100268.45;1680629;83;21262;-86
2023/04/08 03:15:52;;;;;;;58.08;28.42;;;;;;;8.17;100.00;100276.96;1687927;82;21330;-86
2023/04/08 03:18:59;;;;;;;47.50;28.20;;;;;;;8.12;100.00;100273.88;1689519;82;21233;-86
2023/04/08 03:24:31;;;;;;;58.60;28.15;;;;;;;8.06;100.00;100279.97;1674656;84;21287;-86
2023/04/08 03:27:36;;;;;;;50.28;28.90;;;;;;;8.08;100.00;100288.83;1703448;83;21223;-86
2023/04/08 03:33:09;;;;;;;53.08;28.70;;;;;;;8.13;100.00;100283.75;1709320;83;21254;-86
2023/04/08 03:36:15;;;;;;;50.58;27.82;;;;;;;8.15;100.00;100284.45;1707151;83;21220;-86
2023/04/08 03:39:22;;;;;;;58.52;27.55;;;;;;;8.19;100.00;100287.21;1693965;83;21260;-87
2023/04/08 03:42:40;;;;;;;56.55;28.80;;;;;;;8.19;100.00;100289.94;1680595;83;21234;-86
2023/04/08 03:45:46;;;;;;;56.50;29.15;;;;;;;8.22;100.00;100286.87;1687404;81;21235;-86
2023/04/08 03:48:53;;;;;;;59.65;28.92;;;;;;;8.25;100.00;100293.88;1678293;83;21255;-89
2023/04/08 03:51:59;;;;;;;61.90;30.30;;;;;;;8.36;100.00;100295.83;1635715;85;21775;-81
2023/04/08 03:55:05;;;;;;;66.42;30.40;;;;;;;8.39;100.00;100292.80;1687160;82;21239;-81
2023/04/08 03:58:11;;;;;;;63.80;29.63;;;;;;;8.44;100.00;100295.88;1664615;84;21781;-82
2023/04/08 04:01:18;;;;;;;60.33;30.85;;;;;;;8.48;100.00;100290.11;1682069;83;21263;-89
2023/04/08 04:04:24;;;;;;;59.65;29.80;;;;;;;8.58;100.00;100297.66;1658382;83;21232;-80
2023/04/08 04:07:29;;;;;;;66.87;33.73;;;;;;;8.72;100.00;100304.36;1681805;83;21180;-80
2023/04/08 04:10:36;;;;;;;68.15;31.57;;;;;;;8.72;100.00;100304.36;1673722;83;21890;-89
2023/04/08 04:13:42;;;;;;;68.47;32.08;;;;;;;8.75;100.00;100309.47;1696885;81;21308;-81
2023/04/08 04:16:48;;;;;;;59.35;29.25;;;;;;;8.75;100.00;100303.53;1691666;82;21300;-80
2023/04/08 04:19:54;;;;;;;63.92;30.35;;;;;;;8.71;100.00;100314.41;1696003;82;21242;-80
2023/04/08 04:23:01;;;;;;;66.15;34.98;;;;;;;8.89;100.00;100319.27;1661805;83;21205;-81
2023/04/08 04:26:08;;;;;;;61.37;29.48;;;;;;;8.88;100.00;100316.67;1668265;83;21315;-81
2023/04/08 04:29:14;;;;;;;62.83;29.77;;;;;;;8.93;100.00;100323.34;1683727;83;21864;-80
2023/04/08 04:32:20;;;;;;;55.00;27.45;;;;;;;9.00;100.00;100315.88;1698792;82;21240;-81
2023/04/08 04:35:27;;;;;;;46.83;27.10;;;;;;;9.11;100.00;100316.41;1679527;83;21264;-80
2023/04/08 04:38:32;;;;;;;56.95;27.07;;;;;;;9.19;100.00;100320.53;1668964;83;21219;-85
2023/04/08 04:41:39;;;;;;;55.95;28.30;;;;;;;9.30;100.00;100322.08;1679935;83;21798;-81
2023/04/08 04:44:46;;;;;;;59.85;27.20;;;;;;;9.59;100.00;100320.75;1697569;82;21209;-81
2023/04/08 04:47:53;;;;;;;51.02;27.48;;;;;;;9.68;100.00;100321.09;1669104;84;21191;-80
2023/04/08 04:51:06;;;;;;;62.43;27.27;;;;;;;9.76;100.00;100325.20;1638849;85;21222;-81
2023/04/08 04:54:13;;;;;;;60.35;26.68;;;;;;;9.83;100.00;100332.19;1695556;81;21263;-81
2023/04/08 04:57:19;;;;;;;66.45;28.00;;;;;;;9.81;100.00;100332.37;1704242;82;21224;-81
2023/04/08 05:00:26;;;;;;;58.42;27.37;;;;;;;9.78;100.00;100336.80;1684863;83;21212;-80
2023/04/08 05:03:33;;;;;;;59.75;26.52;;;;;;;9.74;100.00;100342.28;1702370;82;21279;-81
2023/04/08 05:06:40;;;;;;;53.50;26.87;;;;;;;9.85;100.00;100347.40;1708890;82;21749;-87
2023/04/08 05:09:46;;;;;;;61.55;27.17;;;;;;;9.72;100.00;100340.22;1698371;82;21227;-80
2023/04/08 05:12:51;;;;;;;45.52;25.82;;;;;;;9.79;100.00;100352.19;1696218;82;21211;-80
2023/04/08 05:15:57;;;;;;;48.15;23.83;;;;;;;9.90;100.00;100362.77;1691044;81;21224;-80
2023/04/08 05:19:03;;;;;;;51.30;23.75;;;;;;;9.93;100.00;100362.43;1687752;81;21248;-87
2023/04/08 05:22:09;;;;;;;55.43;24.35;;;;;;;10.13;100.00;100363.44;1704001;82;21757;-85
2023/04/08 05:25:16;;;;;;;57.85;22.62;;;;;;;10.27;100.00;100364.14;1703560;81;21212;-86
2023/04/08 05:33:20;;;;;;;47.17;20.57;;;;;;;11.17;100.00;100368.80;1697635;81;21374;-85
2023/04/08 05:38:54;;;;;;;44.30;18.80;;;;;;;11.32;100.00;100366.67;1696706;82;21259;-80
2023/04/08 05:42:02;;;;;;;40.35;19.60;;;;;;;11.55;100.00;100368.93;1701113;82;21263;-86
2023/04/08 05:45:08;;;;;;;47.73;17.67;;;;;;;11.74;100.00;100363.49;1699888;81;21215;-86
2023/04/08 05:48:14;;;;;;;44.05;16.67;;;;;;;11.79;100.00;100366.53;1688268;82;21205;-80
2023/04/08 05:51:23;;;;;;;30.15;15.35;;;;;;;11.87;100.00;100366.52;1672748;83;21231;-80
2023/04/08 05:54:29;;;;;;;39.05;15.53;;;;;;;11.83;100.00;100368.43;1700170;82;21211;-80
2023/04/08 05:57:35;;;;;;;43.68;15.90;;;;;;;11.97;100.00;100368.48;1694525;82;21636;-80
2023/04/08 06:00:41;;;;;;;35.95;13.30;;;;;;;12.12;100.00;100374.00;1694929;82;21307;-86
2023/04/08 06:03:48;;;;;;;31.07;13.70;;;;;;;12.24;100.00;100378.02;1696408;82;21283;-85
2023/04/08 06:09:21;;;;;;;33.60;13.45;;;;;;;12.57;100.00;100381.81;1673110;84;21789;-80
2023/04/08 06:12:28;;;;;;;36.48;13.13;;;;;;;12.71;100.00;100382.87;1688452;82;21183;-86
2023/04/08 06:18:00;;;;;;;24.12;10.10;;;;;;;12.74;100.00;100387.95;1700475;81;21271;-86
2023/04/08 06:23:32;;;;;;;28.00;11.95;;;;;;;12.97;99.95;100382.38;1712674;82;21190;-80
2023/04/08 06:26:37;;;;;;;20.25;10.13;;;;;;;12.96;99.58;100384.80;1702876;81;21185;-80
2023/04/08 06:29:43;;;;;;;30.37;11.97;;;;;;;13.30;98.23;100387.81;1702308;82;21200;-80
2023/04/08 06:35:14;;;;;;;40.50;10.90;;;;;;;13.27;97.26;100389.59;1703242;82;21251;-80
2023/04/08 06:38:22;;;;;;;27.37;10.88;;;;;;;13.27;96.00;100392.87;1691334;81;21183;-80
2023/04/08 06:41:28;;;;;;;23.10;11.20;;;;;;;13.30;94.86;100393.83;1705420;81;21252;-80
2023/04/08 06:44:36;;;;;;;33.45;10.55;;;;;;;13.47;94.20;100400.82;1691208;82;21207;-86
2023/04/08 06:47:42;;;;;;;37.83;11.50;;;;;;;13.57;92.39;100392.80;1705705;80;21229;-80
2023/04/08 06:50:31;;;;;;;26.37;10.85;;;;;;;13.48;92.19;100397.55;1706695;82;21271;-86
2023/04/08 06:53:36;;;;;;;26.95;11.97;;;;;;;13.36;92.38;100393.58;1643449;85;21233;-80
2023/04/08 06:56:42;;;;;;;31.68;10.55;;;;;;;13.35;93.21;100392.73;1696506;82;21196;-80
2023/04/08 06:59:47;;;;;;;28.23;10.30;;;;;;;13.35;92.64;100391.36;1687367;82;21200;-86
2023/04/08 07:02:53;;;;;;;33.98;12.40;;;;;;;13.43;91.11;100398.12;1694032;81;21203;-80
2023/04/08 07:08:26;;;;;;;27.73;12.37;;;;;;;13.67;91.45;100394.17;1690786;82;21231;-80
2023/04/08 07:14:02;;;;;;;32.23;10.78;;;;;;;13.70;91.24;100390.20;1704438;82;21729;-86
2023/04/08 07:17:08;;;;;;;30.57;11.18;;;;;;;13.74;90.44;100386.02;1689191;81;21246;-80
2023/04/08 07:20:15;;;;;;;27.00;9.85;;;;;;;13.85;90.14;100377.77;1685509;80;21230;-80
2023/04/08 07:23:20;;;;;;;38.48;11.28;;;;;;;13.94;87.32;100381.56;1705995;82;21204;-86
2023/04/08 07:26:27;;;;;;;28.60;10.20;;;;;;;13.94;87.52;100385.69;1689689;81;21257;-80
2023/04/08 07:29:34;;;;;;;36.13;9.48;;;;;;;13.91;87.54;100386.59;1630115;85;21225;-80
2023/04/08 07:32:40;;;;;;;34.45;10.00;;;;;;;14.03;85.37;100389.16;1680070;84;21201;-86
2023/04/08 07:35:47;;;;;;;32.93;11.15;;;;;;;14.10;84.20;100390.59;1671114;83;21214;-87
2023/04/08 07:41:18;;;;;;;27.30;10.03;;;;;;;14.28;87.00;100400.59;1706134;82;21254;-80
2023/04/08 07:44:24;;;;;;;31.20;11.35;;;;;;;14.38;86.24;100396.97;1704840;82;21251;-80
2023/04/08 07:47:29;;;;;;;30.37;10.72;;;;;;;14.48;84.75;100398.88;1672807;83;21788;-80
2023/04/08 07:53:05;;;;;;;29.10;9.83;;;;;;;14.70;84.38;100407.95;1699606;82;21776;-86
2023/04/08 07:56:18;;;;;;;23.10;10.00;;;;;;;14.81;83.51;100402.41;1668714;84;21233;-80
2023/04/08 08:01:52;;;;;;;21.42;8.65;;;;;;;15.23;81.71;100397.78;1679954;84;21741;-81
2023/04/08 08:07:24;;;;;;;33.92;9.50;;;;;;;15.39;76.42;100396.06;1686280;83;21258;-87
2023/04/08 08:12:58;;;;;;;29.80;8.35;;;;;;;15.34;76.80;100403.57;1707275;82;21677;-80
2023/04/08 08:18:30;;;;;;;22.95;7.03;;;;;;;15.45;75.70;100410.39;1707083;82;21242;-80
2023/04/08 08:21:35;;;;;;;17.07;7.03;;;;;;;15.47;74.54;100407.42;1689231;81;21185;-86
2023/04/08 08:27:20;;;;;;;21.25;6.45;;;;;;;15.50;69.11;100409.24;1702781;82;21194;-80
2023/04/08 08:30:25;;;;;;;17.60;6.90;;;;;;;15.40;69.66;100419.80;1670659;83;21229;-80
2023/04/08 08:33:33;;;;;;;16.30;6.12;;;;;;;15.35;72.06;100426.47;1683564;83;21204;-80
2023/04/08 08:36:39;;;;;;;34.98;7.50;;;;;;;15.45;73.32;100423.33;1632261;85;22067;-86
2023/04/08 08:39:45;;;;;;;27.07;6.35;;;;;;;15.50;74.72;100436.81;1641321;85;21229;-87
2023/04/08 08:43:00;;;;;;;16.02;6.45;;;;;;;15.48;74.90;100425.15;1643675;85;21276;-87
2023/04/08 08:46:05;;;;;;;22.73;7.95;;;;;;;15.59;73.66;100424.55;1637864;85;21255;-80
2023/04/08 08:49:12;;;;;;;25.23;5.80;;;;;;;15.52;74.88;100427.79;1641354;85;21309;-80
2023/04/08 08:52:18;;;;;;;14.58;5.80;;;;;;;15.48;74.05;100425.15;1645036;85;21256;-87
2023/04/08 08:55:28;;;;;;;23.50;6.40;;;;;;;15.43;73.88;100425.42;1636341;83;21268;-81
2023/04/08 08:58:37;;;;;;;16.85;5.45;;;;;;;15.42;72.64;100418.21;1692919;82;21212;-86
2023/04/08 09:01:46;;;;;;;19.20;4.70;;;;;;;15.48;73.44;100414.62;1696600;81;21224;-80
2023/04/08 09:05:07;;;;;;;22.05;5.87;;;;;;;15.55;72.31;100417.73;1690852;82;21766;-87
2023/04/08 09:08:13;;;;;;;18.02;5.97;;;;;;;15.57;69.97;100425.80;1708592;82;21224;-80
2023/04/08 09:11:26;;;;;;;16.30;5.65;;;;;;;15.68;71.73;100431.30;1653977;84;21220;-88
2023/04/08 09:14:33;;;;;;;12.53;5.47;;;;;;;15.66;72.49;100426.50;1662111;82;21823;-81
2023/04/08 09:17:46;;;;;;;19.60;6.03;;;;;;;15.74;73.20;100433.22;1670013;83;21284;-81
2023/04/08 09:21:01;;;;;;;35.40;6.45;;;;;;;15.70;72.96;100434.69;1690825;82;21621;-81
2023/04/08 09:24:07;;;;;;;27.13;5.72;;;;;;;15.70;71.77;100430.55;1664902;83;21243;-87
2023/04/08 09:27:15;;;;;;;12.75;4.78;;;;;;;15.64;73.30;100436.38;1699817;82;21207;-87
2023/04/08 09:30:21;;;;;;;12.85;5.22;;;;;;;15.66;73.01;100432.02;1684814;83;21220;-82
2023/04/08 09:33:27;;;;;;;21.93;5.72;;;;;;;15.73;72.47;100428.77;1666054;83;21746;-87
2023/04/08 09:36:34;;;;;;;16.70;5.83;;;;;;;15.66;73.33;100437.53;1668446;84;21204;-81
2023/04/08 09:42:07;;;;;;;24.52;6.33;;;;;;;15.67;74.09;100429.61;1704291;82;21260;-85
2023/04/08 09:45:13;;;;;;;23.67;5.78;;;;;;;15.73;73.17;100431.53;1695201;80;21202;-81
2023/04/08 09:50:52;;;;;;;21.33;5.35;;;;;;;15.92;72.86;100425.22;1707064;82;22219;-80
2023/04/08 09:54:07;;;;;;;20.88;5.17;;;;;;;15.91;71.84;100425.44;1690943;81;21236;-81
2023/04/08 09:57:16;;;;;;;21.25;5.60;;;;;;;15.98;71.73;100427.66;1672197;83;21236;-81
2023/04/08 10:03:03;;;;;;;25.00;6.22;;;;;;;16.26;71.81;100424.20;1690777;83;21802;-87
2023/04/08 10:06:10;;;;;;;31.82;5.92;;;;;;;16.32;70.97;100422.50;1681292;83;21200;-81
2023/04/08 10:09:16;;;;;;;17.75;5.50;;;;;;;16.48;70.40;100426.78;1703897;82;21308;-88
2023/04/08 10:12:21;;;;;;;19.05;5.87;;;;;;;16.55;71.00;100431.75;1672955;84;21224;-88
2023/04/08 10:15:43;;;;;;;22.15;6.47;;;;;;;16.54;71.19;100435.58;1649763;84;21216;-81
2023/04/08 10:18:55;;;;;;;15.03;5.53;;;;;;;16.50;71.36;100433.77;1698155;82;21753;-80
2023/04/08 10:21:57;;;;;;;22.87;6.58;;;;;;;16.55;72.33;100435.36;1673814;83;21837;-81
2023/04/08 10:25:25;;;;;;;18.80;5.45;;;;;;;16.58;70.80;100434.10;1703645;82;21189;-86
2023/04/08 10:31:01;;;;;;;17.20;5.72;;;;;;;16.53;71.47;100433.36;1673471;84;21299;-87
2023/04/08 10:36:54;;;;;;;15.72;6.00;;;;;;;16.68;68.43;100435.05;1693816;81;21247;-81
2023/04/08 10:40:01;;;;;;;22.67;6.30;;;;;;;16.69;69.96;100433.98;1692548;81;21196;-82
2023/04/08 10:45:32;;;;;;;18.15;6.12;;;;;;;16.61;70.43;100429.55;1701411;81;21560;-88
2023/04/08 10:51:09;;;;;;;21.75;6.42;;;;;;;16.61;71.70;100433.69;1703169;82;21196;-88
2023/04/08 10:56:42;;;;;;;25.57;6.25;;;;;;;16.74;68.71;100427.32;1700378;80;21206;-88
2023/04/08 10:59:48;;;;;;;19.92;6.62;;;;;;;16.70;67.50;100429.65;1703183;81;21248;-88
2023/04/08 11:02:54;;;;;;;16.75;5.22;;;;;;;16.69;68.03;100418.80;1704113;82;21317;-82
2023/04/08 11:06:01;;;;;;;14.78;4.70;;;;;;;16.78;67.80;100420.31;1662815;83;21231;-88
2023/04/08 11:09:09;;;;;;;12.37;4.58;;;;;;;16.84;65.28;100424.46;1644670;84;21208;-86
2023/04/08 11:12:17;;;;;;;18.32;5.25;;;;;;;16.96;63.94;100420.49;1681792;83;21196;-81
2023/04/08 11:15:22;;;;;;;22.62;5.40;;;;;;;17.07;60.55;100421.20;1693514;82;21196;-81
2023/04/08 11:18:30;;;;;;;19.98;4.53;;;;;;;17.25;61.02;100415.53;1700265;82;21204;-87
2023/04/08 11:21:38;;;;;;;16.70;4.72;;;;;;;17.42;61.35;100402.09;1694555;82;21243;-89
2023/04/08 11:24:44;;;;;;;22.20;5.10;;;;;;;17.52;59.85;100410.22;1690873;82;21223;-82
2023/04/08 11:27:50;;;;;;;15.63;4.50;;;;;;;17.42;59.38;100397.94;1693801;82;21190;-88
2023/04/08 11:30:50;;;;;;;19.98;4.92;;;;;;;17.51;59.14;100397.47;1661311;84;21292;-88
2023/04/08 11:36:26;;;;;;;23.75;4.42;;;;;;;17.69;56.77;100398.64;1685059;84;21239;-83
2023/04/08 11:39:32;;;;;;;12.93;4.15;;;;;;;17.69;54.58;100400.02;1685352;83;21829;-80
2023/04/08 11:42:39;;;;;;;16.90;4.42;;;;;;;17.81;54.82;100395.53;1683361;84;21240;-88
2023/04/08 11:45:46;;;;;;;19.62;4.72;;;;;;;17.77;53.84;100393.73;1688085;81;21256;-86
2023/04/08 11:51:17;;;;;;;15.15;4.67;;;;;;;17.71;56.19;100391.83;1698673;81;21212;-87
2023/04/08 11:54:36;;;;;;;18.87;5.75;;;;;;;17.58;57.35;100400.19;1693705;82;21204;-81
2023/04/08 11:57:43;;;;;;;18.70;5.45;;;;;;;17.06;65.24;100426.95;1690056;81;21757;-89
2023/04/08 12:00:49;;;;;;;17.37;5.58;;;;;;;16.17;69.25;100438.41;1703523;81;21303;-80
2023/04/08 12:04:09;;;;;;;15.08;4.12;;;;;;;15.35;72.86;100445.75;1704750;82;21267;-80
2023/04/08 12:07:17;;;;;;;15.68;4.15;;;;;;;14.56;67.38;100460.67;1704127;82;21825;-77
2023/04/08 12:10:24;;;;;;;22.93;4.75;;;;;;;13.73;73.56;100470.87;1703549;81;21247;-85
2023/04/08 12:13:30;;;;;;;12.98;5.28;;;;;;;13.32;76.48;100468.69;1701664;82;21792;-81
2023/04/08 12:16:35;;;;;;;19.27;6.55;;;;;;;13.23;79.04;100467.92;1700051;82;21190;-78
2023/04/08 12:19:41;;;;;;;13.98;5.17;;;;;;;13.03;82.81;100462.12;1698729;82;21788;-78
2023/04/08 12:22:46;;;;;;;10.58;4.67;;;;;;;13.07;84.32;100465.84;1699294;82;21208;-91
2023/04/08 12:25:51;;;;;;;12.63;4.55;;;;;;;13.01;84.93;100477.91;1693249;81;21227;-91
2023/04/08 12:28:58;;;;;;;17.02;4.70;;;;;;;12.94;86.16;100480.25;1675916;83;21211;-79
2023/04/08 12:32:04;;;;;;;10.48;4.25;;;;;;;12.93;85.25;100488.97;1681320;83;21306;-79
2023/04/08 12:35:10;;;;;;;12.75;4.70;;;;;;;12.81;85.71;100487.73;1626134;85;21862;-79
2023/04/08 12:38:16;;;;;;;10.03;4.85;;;;;;;12.74;86.45;100492.25;1630583;85;23506;-92
2023/04/08 12:41:22;;;;;;;15.30;4.75;;;;;;;12.67;87.94;100498.17;1699279;81;21829;-93
2023/04/08 12:44:27;;;;;;;14.33;4.15;;;;;;;12.65;88.65;100498.86;1673804;83;21240;-92
2023/04/08 12:47:34;;;;;;;17.10;4.00;;;;;;;12.45;89.32;100499.37;1674577;84;21176;-92
2023/04/08 12:50:40;;;;;;;11.85;3.75;;;;;;;12.25;90.14;100492.68;1702884;81;21252;-78
2023/04/08 12:53:47;;;;;;;16.55;3.70;;;;;;;12.09;90.14;100487.30;1700257;82;21213;-77
2023/04/08 12:56:52;;;;;;;12.15;4.00;;;;;;;12.02;90.63;100475.69;1700871;81;21496;-90
2023/04/08 12:59:59;;;;;;;11.15;3.83;;;;;;;11.96;91.53;100468.73;1702472;82;21768;-91
2023/04/08 13:03:05;;;;;;;9.48;3.47;;;;;;;12.08;91.12;100459.55;1684974;83;21746;-92
2023/04/08 13:06:13;;;;;;;9.70;4.40;;;;;;;12.03;90.93;100449.98;1634669;86;21209;-93
2023/04/08 13:09:19;;;;;;;8.75;5.00;;;;;;;12.03;90.48;100445.02;1643759;84;21204;-79
2023/04/08 13:12:26;;;;;;;6.55;3.75;;;;;;;12.30;90.08;100429.90;1634063;85;21816;-92
2023/04/08 13:15:34;;;;;;;14.03;4.20;;;;;;;12.33;88.82;100422.69;1640033;85;21272;-90
2023/04/08 13:18:40;;;;;;;8.43;3.47;;;;;;;12.51;87.84;100410.86;1694050;80;21212;-80
2023/04/08 13:21:48;;;;;;;18.00;10.65;;;;;;;12.50;88.07;100399.52;1677272;83;21292;-88
2023/04/08 13:24:53;;;;;;;13.55;5.97;;;;;;;12.59;87.45;100394.81;1705732;82;21285;-89
2023/04/08 13:28:00;;;;;;;8.00;3.33;;;;;;;12.74;88.34;100394.82;1675547;83;21272;-89
2023/04/08 13:31:05;;;;;;;9.68;3.98;;;;;;;12.96;87.08;100384.28;1639624;85;21273;-79
2023/04/08 13:34:12;;;;;;;9.83;4.12;;;;;;;13.01;86.23;100390.05;1639420;85;21257;-90
2023/04/08 13:37:18;;;;;;;12.60;5.47;;;;;;;13.22;83.99;100384.32;1639119;85;21275;-80
2023/04/08 13:40:26;;;;;;;11.08;5.03;;;;;;;13.19;83.08;100384.69;1634143;85;21237;-90
2023/04/08 13:43:32;;;;;;;11.73;4.37;;;;;;;13.42;80.45;100383.22;1692644;82;21297;-91
2023/04/08 13:46:38;;;;;;;10.78;3.83;;;;;;;13.51;78.62;100388.41;1698347;82;21296;-80
2023/04/08 13:49:44;;;;;;;19.25;6.37;;;;;;;13.76;77.11;100383.38;1679981;84;21180;-90
2023/04/08 13:52:50;;;;;;;13.48;5.90;;;;;;;13.92;77.00;100391.89;1682590;83;21257;-90
2023/04/08 13:55:57;;;;;;;27.17;13.70;;;;;;;14.19;76.26;100381.15;1636946;84;21274;-79
2023/04/08 13:59:04;;;;;;;26.33;7.87;;;;;;;14.34;77.81;100387.41;1637943;84;21249;-80
2023/04/08 14:02:10;;;;;;;15.88;5.05;;;;;;;14.47;78.94;100379.80;1683984;83;21230;-80
2023/04/08 14:05:17;;;;;;;23.00;6.67;;;;;;;14.40;80.55;100381.13;1682984;84;21778;-90
2023/04/08 14:08:26;;;;;;;56.53;14.98;;;;;;;14.38;79.55;100376.34;1679408;83;21200;-80
2023/04/08 14:11:32;;;;;;;40.10;12.18;;;;;;;14.52;78.06;100379.55;1672555;83;21708;-79
2023/04/08 14:14:38;;;;;;;28.30;10.15;;;;;;;14.45;76.38;100375.87;1704975;82;21240;-89
2023/04/08 14:17:44;;;;;;;23.20;7.25;;;;;;;14.56;76.77;100375.87;1707342;82;21216;-80
2023/04/08 14:20:50;;;;;;;17.62;6.28;;;;;;;14.48;75.41;100377.39;1662303;84;21746;-80
2023/04/08 14:23:56;;;;;;;36.28;12.65;;;;;;;14.67;75.35;100382.72;1670858;83;21281;-79
2023/04/08 14:27:02;;;;;;;24.85;7.85;;;;;;;14.57;75.75;100385.83;1687957;83;21200;-79
2023/04/08 14:30:08;;;;;;;18.17;6.42;;;;;;;14.53;75.68;100392.25;1674862;84;21192;-79
2023/04/08 14:33:14;;;;;;;13.83;4.05;;;;;;;14.46;76.03;100398.21;1663824;84;21185;-91
2023/04/08 14:36:23;;;;;;;14.55;6.90;;;;;;;14.47;78.28;100405.94;1656704;83;21271;-80
2023/04/08 14:39:29;;;;;;;15.55;6.05;;;;;;;14.43;80.04;100405.48;1653289;84;21195;-79
2023/04/08 14:42:35;;;;;;;18.07;5.72;;;;;;;14.39;80.72;100397.30;1638795;85;21264;-79
2023/04/08 14:45:41;;;;;;;17.95;4.90;;;;;;;14.29;81.58;100406.42;1697167;82;21782;-80
2023/04/08 14:48:49;;;;;;;13.28;4.53;;;;;;;14.16;81.11;100401.67;1664189;83;21211;-80
2023/04/08 14:51:54;;;;;;;15.70;4.30;;;;;;;14.17;81.69;100397.02;1693261;81;21236;-79
2023/04/08 14:55:01;;;;;;;16.00;4.83;;;;;;;14.03;81.24;100398.26;1698867;82;21840;-80
2023/04/08 14:58:07;;;;;;;13.88;5.05;;;;;;;13.78;82.21;100399.18;1698401;81;21284;-90
2023/04/08 15:01:14;;;;;;;19.48;7.22;;;;;;;13.73;82.71;100399.41;1659141;83;21183;-79
2023/04/08 15:04:19;;;;;;;13.50;6.37;;;;;;;13.68;83.04;100403.27;1696686;82;21252;-90
2023/04/08 15:07:26;;;;;;;20.23;7.17;;;;;;;13.61;83.52;100399.61;1693624;82;21247;-90
2023/04/08 15:10:32;;;;;;;40.38;15.32;;;;;;;13.46;83.90;100391.41;1672384;83;21774;-79
2023/04/08 15:13:38;;;;;;;42.88;19.40;;;;;;;13.41;84.15;100397.97;1698846;82;21181;-79
2023/04/08 15:16:45;;;;;;;34.03;16.15;;;;;;;13.30;84.42;100392.46;1666742;83;21263;-80
2023/04/08 15:19:50;;;;;;;17.85;9.78;;;;;;;13.27;84.59;100395.61;1626892;85;21354;-79
2023/04/08 15:22:56;;;;;;;11.73;5.55;;;;;;;13.39;84.00;100394.58;1702750;81;21789;-79
2023/04/08 15:26:03;;;;;;;10.98;5.85;;;;;;;13.25;83.74;100397.16;1675500;84;21223;-79
2023/04/08 15:29:09;;;;;;;15.28;5.30;;;;;;;13.30;83.87;100399.33;1643846;86;21283;-91
2023/04/08 15:32:15;;;;;;;13.08;5.10;;;;;;;13.03;84.72;100404.45;1701324;82;21276;-91
2023/04/08 15:37:50;;;;;;;14.35;5.00;;;;;;;12.89;85.58;100408.05;1691449;81;21263;-80
2023/04/08 15:40:56;;;;;;;;;;;;;;;12.84;85.79;100402.77;1692551;82;21786;-90
2023/04/08 15:46:28;;;;;;;11.90;5.35;;;;;;;12.84;86.62;100410.48;1677370;84;21255;-91
2023/04/08 15:49:36;;;;;;;13.60;5.45;;;;;;;12.82;86.94;100406.24;1698100;82;21227;-91
2023/04/08 15:52:43;;;;;;;15.45;6.03;;;;;;;12.82;86.95;100402.97;1696653;82;21326;-91
2023/04/08 15:55:49;;;;;;;14.15;5.65;;;;;;;12.60;88.35;100403.89;1707098;82;21238;-79
2023/04/08 16:01:21;;;;;;;12.98;5.87;;;;;;;12.45;88.97;100401.12;1706028;82;21233;-80
2023/04/08 16:04:29;;;;;;;16.77;7.45;;;;;;;12.53;89.21;100390.93;1697807;81;21244;-92
2023/04/08 16:10:02;;;;;;;14.13;6.87;;;;;;;12.55;90.03;100400.34;1694359;82;21366;-80
2023/04/08 16:13:09;;;;;;;15.10;6.85;;;;;;;12.51;89.73;100393.02;1691385;80;21287;-91
2023/04/08 16:16:15;;;;;;;18.98;7.83;;;;;;;12.43;90.07;100405.97;1687520;82;21227;-91